Time;durP1;ratioP1;P1;durP2;ratioP2;P2;SDS_P1;SDS_P2;PMS_P1;PMS_P2;Temp;Humidity;BMP_temperature;BMP_pressure;BME280_temperature;BME280_humidity;BME280_pressure;Samples;Min_cycle;Max_cycle;Signal;HPM_P1;HPM_P2
2024/01/06 00:11:43;;;;;;;99.50;44.60;;;;;;;0.25;93.55;97585.80;435387;1256;109156;-40
2024/01/06 00:21:50;;;;;;;99.10;38.20;;;;;;;0.03;93.41;97574.72;435391;1261;98624;-39
2024/01/06 00:31:56;;;;;;;80.00;37.50;;;;;;;-0.06;93.51;97580.25;435426;1254;112117;-42
2024/01/06 00:42:03;;;;;;;79.40;34.30;;;;;;;-0.01;93.55;97586.05;435122;1253;108477;-40
2024/01/06 00:52:10;;;;;;;59.20;29.40;;;;;;;0.12;93.81;97593.95;434956;1251;529546;-40
2024/01/06 01:12:24;;;;;;;83.90;37.30;;;;;;;0.01;93.95;97596.78;435477;1251;99269;-38
2024/01/06 01:32:38;;;;;;;69.80;31.80;;;;;;;0.10;93.90;97596.13;435256;1251;108287;-39
2024/01/06 01:42:45;;;;;;;59.00;31.50;;;;;;;0.23;94.06;97584.48;435322;1251;97915;-40
2024/01/06 01:52:52;;;;;;;74.60;34.80;;;;;;;0.21;93.96;97589.93;435408;1254;106485;-39
2024/01/06 02:03:02;;;;;;;77.30;38.00;;;;;;;0.11;93.98;97580.91;435266;1251;98146;-39
2024/01/06 02:13:10;;;;;;;85.70;38.00;;;;;;;0.04;94.18;97579.45;435370;1253;112131;-39
2024/01/06 02:23:18;;;;;;;67.20;36.80;;;;;;;0.04;94.06;97568.83;435299;1264;107602;-39
2024/01/06 02:33:26;;;;;;;68.20;32.80;;;;;;;0.13;94.10;97549.88;435262;1253;99203;-39
2024/01/06 02:43:32;;;;;;;50.10;27.80;;;;;;;0.31;94.29;97548.45;436031;1251;107995;-39
2024/01/06 02:53:39;;;;;;;76.40;35.60;;;;;;;0.40;94.35;97555.70;435276;1255;99227;-40
2024/01/06 03:03:46;;;;;;;82.10;36.90;;;;;;;0.29;94.38;97560.13;435340;1255;111342;-40
2024/01/06 03:13:53;;;;;;;89.80;38.30;;;;;;;0.23;94.29;97550.20;435142;1254;108322;-40
2024/01/06 03:24:01;;;;;;;64.00;33.50;;;;;;;0.19;94.15;97545.41;435164;1254;99228;-40
2024/01/06 03:34:08;;;;;;;48.00;26.40;;;;;;;0.33;94.22;97551.66;435253;1253;111410;-40
2024/01/06 03:44:16;;;;;;;57.80;30.30;;;;;;;0.42;94.19;97552.30;435273;1251;107886;-40
2024/01/06 04:04:29;;;;;;;71.20;34.90;;;;;;;0.33;94.33;97563.14;435510;1254;112369;-41
2024/01/06 04:14:36;;;;;;;63.80;32.40;;;;;;;0.23;94.43;97562.30;435274;1254;107526;-38
2024/01/06 04:24:44;;;;;;;57.80;30.30;;;;;;;0.19;94.17;97568.44;435346;1251;98577;-40
2024/01/06 04:34:51;;;;;;;52.60;27.40;;;;;;;0.26;94.35;97570.77;435166;1252;112115;-40
2024/01/06 04:44:58;;;;;;;55.40;30.00;;;;;;;0.32;94.27;97575.73;435125;1254;110205;-40
2024/01/06 04:55:05;;;;;;;69.10;33.70;;;;;;;0.27;94.26;97573.82;435334;1254;99353;-40
2024/01/06 05:05:13;;;;;;;65.60;32.80;;;;;;;0.18;94.52;97585.23;435372;1254;112469;-40
2024/01/06 05:15:20;;;;;;;42.00;25.50;;;;;;;0.07;94.23;97593.98;435421;1251;107567;-40
2024/01/06 05:25:27;;;;;;;43.30;24.40;;;;;;;0.08;94.35;97600.56;435166;1251;97989;-40
2024/01/06 05:35:34;;;;;;;48.80;24.90;;;;;;;0.10;94.50;97599.21;435201;1251;111576;-39
2024/01/06 05:55:49;;;;;;;43.40;25.30;;;;;;;-0.05;94.70;97615.75;435399;1251;99279;-40
2024/01/06 06:05:55;;;;;;;38.80;23.30;;;;;;;0.02;94.78;97622.59;435318;1251;107137;-40
2024/01/06 06:16:02;;;;;;;56.70;29.10;;;;;;;0.08;94.85;97628.48;435342;1251;99231;-39
2024/01/06 06:26:11;;;;;;;60.90;30.00;;;;;;;0.05;95.13;97635.36;435288;1254;112921;-40
2024/01/06 06:36:18;;;;;;;40.60;22.40;;;;;;;0.07;95.07;97634.86;435401;1254;107256;-39
2024/01/06 06:46:25;;;;;;;37.70;21.90;;;;;;;0.07;94.77;97634.42;435306;1251;99310;-39
2024/01/06 06:56:31;;;;;;;47.20;22.10;;;;;;;0.15;94.99;97640.88;435272;1254;107652;-39
2024/01/06 07:16:43;;;;;;;57.10;27.50;;;;;;;0.29;94.98;97682.23;435348;1250;111780;-40
2024/01/06 07:26:49;;;;;;;46.40;24.30;;;;;;;0.20;94.88;97678.58;435313;1256;106785;-40
2024/01/06 07:36:56;;;;;;;33.70;21.20;;;;;;;0.26;94.94;97683.38;435357;1251;99330;-40
2024/01/06 07:57:11;;;;;;;50.20;26.40;;;;;;;0.40;95.21;97701.84;435484;1255;98030;-38
2024/01/06 08:07:18;;;;;;;34.50;20.20;;;;;;;0.47;95.06;97702.02;435320;1253;111308;-40
2024/01/06 08:17:25;;;;;;;38.70;23.20;;;;;;;0.64;95.06;97698.30;435456;1254;108463;-40
2024/01/06 08:27:33;;;;;;;48.80;28.20;;;;;;;0.72;95.43;97717.88;435369;1254;98825;-38
2024/01/06 08:37:39;;;;;;;37.40;21.70;;;;;;;0.72;95.23;97737.23;435174;1255;111737;-39
2024/01/06 08:47:46;;;;;;;42.00;23.70;;;;;;;0.78;95.22;97744.54;435085;1253;108128;-40
2024/01/06 09:07:59;;;;;;;39.00;19.40;;;;;;;0.74;95.19;97765.27;435466;1252;111934;-40
2024/01/06 09:18:06;;;;;;;45.00;23.40;;;;;;;0.84;95.24;97780.69;435219;1250;108424;-41
2024/01/06 09:28:13;;;;;;;54.00;26.00;;;;;;;0.83;95.35;97783.08;435311;1255;99247;-39
2024/01/06 09:38:21;;;;;;;34.90;20.30;;;;;;;0.96;95.20;97786.83;435333;1253;112117;-40
2024/01/06 09:58:39;;;;;;;46.30;23.40;;;;;;;1.16;95.17;97785.32;435320;1254;99240;-41
2024/01/06 10:18:55;;;;;;;41.10;24.20;;;;;;;1.26;94.72;97782.83;435240;1251;108098;-39
2024/01/06 10:49:15;;;;;;;51.50;26.10;;;;;;;1.32;94.51;97779.09;435203;1255;108864;-41
2024/01/06 11:09:33;;;;;;;39.40;23.40;;;;;;;1.35;94.14;97772.21;435225;1253;111081;-40
2024/01/06 11:19:54;;;;;;;53.20;29.00;;;;;;;1.38;94.13;97778.80;435191;1252;107621;-39
2024/01/06 11:30:05;;;;;;;45.80;25.00;;;;;;;1.37;94.23;97772.63;435289;1256;99214;-39
2024/01/06 11:40:23;;;;;;;41.50;23.90;;;;;;;1.40;93.94;97771.13;435501;1264;111683;-42
2024/01/06 11:50:30;;;;;;;51.60;26.10;;;;;;;1.47;94.00;97783.02;435268;1255;108236;-39
2024/01/06 12:00:39;;;;;;;52.90;27.90;;;;;;;1.34;93.97;97788.64;435405;1256;99224;-38
2024/01/06 12:10:46;;;;;;;41.10;24.30;;;;;;;1.26;93.52;97793.24;435292;1253;112258;-39
2024/01/06 12:20:55;;;;;;;52.60;28.90;;;;;;;1.25;93.83;97802.70;435492;1254;108501;-40
2024/01/06 12:31:09;;;;;;;50.30;26.80;;;;;;;1.10;93.57;97800.86;435409;1256;99236;-41
2024/01/06 12:41:17;;;;;;;41.80;25.70;;;;;;;1.03;93.40;97805.86;435378;1252;112981;-41
2024/01/06 13:01:31;;;;;;;59.30;32.90;;;;;;;0.86;93.52;97808.45;435371;1256;98555;-40
2024/01/06 13:11:37;;;;;;;55.10;29.30;;;;;;;0.77;93.20;97809.66;435170;1251;108382;-41
2024/01/06 13:21:44;;;;;;;79.50;41.20;;;;;;;0.72;93.63;97814.42;435358;1253;99247;-40
2024/01/06 13:31:52;;;;;;;62.60;32.80;;;;;;;0.69;93.55;97830.30;435501;1253;112245;-39
2024/01/06 13:42:00;;;;;;;82.90;40.90;;;;;;;0.61;93.48;97841.80;435253;1262;106940;-40
2024/01/06 14:12:21;;;;;;;90.40;39.70;;;;;;;0.41;93.69;97857.24;435109;1253;108925;-38
2024/01/06 14:22:28;;;;;;;72.10;35.70;;;;;;;0.24;93.77;97876.77;435316;1256;99126;-40
2024/01/06 14:42:42;;;;;;;76.10;36.60;;;;;;;0.13;94.12;97888.05;435249;1257;99233;-40
2024/01/06 15:02:57;;;;;;;50.40;27.20;;;;;;;-0.16;94.44;97901.88;435197;1256;106045;-40
2024/01/06 15:13:04;;;;;;;57.20;30.40;;;;;;;-0.26;95.11;97919.00;435370;1257;98932;-40
2024/01/06 15:23:12;;;;;;;55.30;28.10;;;;;;;-0.40;95.41;97927.71;435369;1256;107657;-39
2024/01/06 15:43:24;;;;;;;43.00;22.90;;;;;;;-0.52;96.24;97940.21;435259;1256;111270;-39
2024/01/06 15:53:31;;;;;;;47.70;26.40;;;;;;;-0.63;96.61;97937.30;435374;1256;108197;-40
2024/01/06 16:03:38;;;;;;;39.50;21.70;;;;;;;-0.65;96.83;97947.09;435250;1256;99231;-40
2024/01/06 16:13:45;;;;;;;33.20;18.00;;;;;;;-0.71;97.03;97957.26;435233;1251;108239;-40
2024/01/06 16:23:52;;;;;;;30.00;16.90;;;;;;;-0.76;97.22;97961.12;435166;1263;99276;-38
2024/01/06 16:34:00;;;;;;;35.30;18.10;;;;;;;-0.80;97.16;97969.63;435364;1255;110686;-40
2024/01/06 16:54:11;;;;;;;22.70;13.80;;;;;;;-0.89;97.46;97981.35;435449;1251;99322;-40
2024/01/06 17:04:18;;;;;;;31.00;18.00;;;;;;;-0.96;97.83;97976.98;436385;1254;110652;-39
2024/01/06 17:34:37;;;;;;;19.70;11.80;;;;;;;-0.97;97.96;97991.54;435666;1257;110312;-40
2024/01/06 17:44:46;;;;;;;22.70;13.90;;;;;;;-1.08;98.26;97996.64;435256;1255;99249;-40
2024/01/06 17:54:53;;;;;;;17.80;11.80;;;;;;;-1.09;97.87;98003.36;435270;1251;111450;-39
2024/01/06 18:05:00;;;;;;;21.60;14.80;;;;;;;-1.05;97.97;98014.98;435319;1251;108165;-39
2024/01/06 18:15:08;;;;;;;28.20;15.80;;;;;;;-1.14;98.11;98025.71;435305;1266;99218;-40
2024/01/06 18:25:15;;;;;;;21.20;14.30;;;;;;;-1.28;97.73;98030.80;435714;1251;107269;-40
2024/01/06 18:45:29;;;;;;;38.10;21.20;;;;;;;-1.38;98.02;98039.88;435283;1254;111277;-40
2024/01/06 18:55:36;;;;;;;24.50;16.60;;;;;;;-1.47;97.79;98040.35;435208;1251;108557;-40
2024/01/06 19:15:49;;;;;;;38.90;19.80;;;;;;;-1.56;97.92;98049.63;435205;1254;111830;-40
2024/01/06 19:25:56;;;;;;;23.00;15.90;;;;;;;-1.60;97.71;98045.37;435633;1251;107125;-39
2024/01/06 19:46:10;;;;;;;37.60;21.00;;;;;;;-1.72;97.99;98047.20;435880;1254;111308;-40
2024/01/06 19:56:17;;;;;;;27.60;16.30;;;;;;;-1.76;97.67;98055.16;435069;1254;108066;-40
2024/01/06 20:06:24;;;;;;;25.10;14.70;;;;;;;-1.82;97.79;98060.79;435818;1255;99275;-40
2024/01/06 20:16:32;;;;;;;30.00;17.30;;;;;;;-1.88;97.87;98060.44;435490;1254;112876;-40
2024/01/06 20:26:39;;;;;;;24.60;12.90;;;;;;;-1.92;97.53;98061.46;435230;1263;108295;-39
2024/01/06 20:36:47;;;;;;;20.10;13.50;;;;;;;-1.92;97.70;98068.92;435211;1251;99282;-39
2024/01/06 20:46:54;;;;;;;35.00;19.50;;;;;;;-1.99;97.69;98069.19;435242;1251;107331;-39
2024/01/06 20:57:01;;;;;;;19.50;13.10;;;;;;;-2.09;97.54;98074.06;435014;1251;99266;-39
2024/01/06 21:07:09;;;;;;;19.30;12.70;;;;;;;-2.11;97.32;98082.20;435377;1254;111838;-40
2024/01/06 21:17:15;;;;;;;29.10;16.30;;;;;;;-2.21;97.36;98086.39;435340;1251;108357;-40
2024/01/06 21:27:23;;;;;;;20.90;11.30;;;;;;;-2.29;97.15;98094.69;435106;1254;99180;-40
2024/01/06 21:37:30;;;;;;;14.50;10.00;;;;;;;-2.35;97.00;98096.33;435344;1251;107419;-38
2024/01/06 21:47:38;;;;;;;27.40;14.00;;;;;;;-2.49;96.96;98105.51;435384;1254;99213;-39
2024/01/06 21:57:44;;;;;;;15.90;9.40;;;;;;;-2.57;96.63;98109.31;435354;1250;111572;-39
2024/01/06 22:07:51;;;;;;;14.70;9.40;;;;;;;-2.59;96.63;98111.06;435295;1251;108154;-40
2024/01/06 22:17:59;;;;;;;20.60;10.50;;;;;;;-2.62;96.51;98124.63;435232;1251;99212;-38
2024/01/06 22:38:16;;;;;;;18.10;8.80;;;;;;;-2.79;96.57;98129.71;435195;1251;108443;-39
2024/01/06 22:48:23;;;;;;;19.30;9.90;;;;;;;-2.92;96.17;98133.83;435288;1254;98841;-40
2024/01/06 22:58:32;;;;;;;11.20;6.60;;;;;;;-2.97;96.09;98132.64;435466;1251;108635;-39
2024/01/06 23:18:46;;;;;;;15.40;7.50;;;;;;;-3.21;96.32;98146.70;435341;1251;111642;-40
2024/01/06 23:28:53;;;;;;;11.00;6.70;;;;;;;-3.16;96.03;98151.09;435137;1255;108744;-40
2024/01/06 23:38:59;;;;;;;15.70;7.70;;;;;;;-3.22;96.21;98153.19;435326;1251;99253;-38
2024/01/06 23:49:07;;;;;;;18.10;7.50;;;;;;;-3.37;96.15;98154.05;435886;1251;108858;-40
2024/01/06 23:59:14;;;;;;;10.70;5.90;;;;;;;-3.37;96.18;98157.53;435173;1254;99219;-40
